sensor_id;sensor_type;location;lat;lon;timestamp;P1;durP1;ratioP1;P2;durP2;ratioP2
7051;SDS011;3567;52.444;13.556;2023-05-10T00:01:26;4.07;;;3.67;;
7051;SDS011;3567;52.444;13.556;2023-05-10T00:03:52;5.38;;;3.70;;
7051;SDS011;3567;52.444;13.556;2023-05-10T00:06:17;4.15;;;3.58;;
7051;SDS011;3567;52.444;13.556;2023-05-10T00:08:43;7.82;;;3.92;;
7051;SDS011;3567;52.444;13.556;2023-05-10T00:11:08;3.85;;;3.50;;
7051;SDS011;3567;52.444;13.556;2023-05-10T00:13:34;4.32;;;3.92;;
7051;SDS011;3567;52.444;13.556;2023-05-10T00:15:59;4.53;;;4.13;;
7051;SDS011;3567;52.444;13.556;2023-05-10T00:18:25;4.57;;;3.78;;
7051;SDS011;3567;52.444;13.556;2023-05-10T00:20:50;5.93;;;4.72;;
7051;SDS011;3567;52.444;13.556;2023-05-10T00:23:16;8.48;;;4.82;;
7051;SDS011;3567;52.444;13.556;2023-05-10T00:25:41;10.65;;;4.65;;
7051;SDS011;3567;52.444;13.556;2023-05-10T00:28:06;4.95;;;4.35;;
7051;SDS011;3567;52.444;13.556;2023-05-10T00:30:32;4.63;;;4.13;;
7051;SDS011;3567;52.444;13.556;2023-05-10T00:32:57;6.72;;;4.35;;
7051;SDS011;3567;52.444;13.556;2023-05-10T00:35:23;8.68;;;5.18;;
7051;SDS011;3567;52.444;13.556;2023-05-10T00:37:48;4.82;;;4.43;;
7051;SDS011;3567;52.444;13.556;2023-05-10T00:40:13;4.88;;;4.47;;
7051;SDS011;3567;52.444;13.556;2023-05-10T00:42:39;6.18;;;4.95;;
7051;SDS011;3567;52.444;13.556;2023-05-10T00:45:05;6.15;;;4.63;;
7051;SDS011;3567;52.444;13.556;2023-05-10T00:47:31;6.30;;;4.95;;
7051;SDS011;3567;52.444;13.556;2023-05-10T00:49:57;5.22;;;4.75;;
7051;SDS011;3567;52.444;13.556;2023-05-10T00:52:25;7.60;;;5.07;;
7051;SDS011;3567;52.444;13.556;2023-05-10T00:54:51;11.10;;;5.68;;
7051;SDS011;3567;52.444;13.556;2023-05-10T00:57:17;8.02;;;5.63;;
7051;SDS011;3567;52.444;13.556;2023-05-10T00:59:42;8.98;;;5.57;;
7051;SDS011;3567;52.444;13.556;2023-05-10T01:02:08;5.88;;;4.68;;
7051;SDS011;3567;52.444;13.556;2023-05-10T01:04:33;4.95;;;4.55;;
7051;SDS011;3567;52.444;13.556;2023-05-10T01:07:00;5.95;;;5.05;;
7051;SDS011;3567;52.444;13.556;2023-05-10T01:09:26;6.53;;;4.80;;
7051;SDS011;3567;52.444;13.556;2023-05-10T01:11:52;6.82;;;4.68;;
7051;SDS011;3567;52.444;13.556;2023-05-10T01:14:19;5.57;;;4.55;;
7051;SDS011;3567;52.444;13.556;2023-05-10T01:16:45;5.80;;;5.25;;
7051;SDS011;3567;52.444;13.556;2023-05-10T01:19:21;5.80;;;4.85;;
7051;SDS011;3567;52.444;13.556;2023-05-10T01:34:57;5.03;;;4.30;;
7051;SDS011;3567;52.444;13.556;2023-05-10T01:38:14;5.93;;;5.13;;
7051;SDS011;3567;52.444;13.556;2023-05-10T01:40:44;9.50;;;4.88;;
7051;SDS011;3567;52.444;13.556;2023-05-10T01:43:21;4.95;;;3.63;;
7051;SDS011;3567;52.444;13.556;2023-05-10T01:46:10;5.88;;;4.60;;
7051;SDS011;3567;52.444;13.556;2023-05-10T01:48:48;5.28;;;4.70;;
7051;SDS011;3567;52.444;13.556;2023-05-10T01:51:24;5.97;;;4.72;;
7051;SDS011;3567;52.444;13.556;2023-05-10T01:53:51;5.28;;;4.10;;
7051;SDS011;3567;52.444;13.556;2023-05-10T01:56:24;4.32;;;3.92;;
7051;SDS011;3567;52.444;13.556;2023-05-10T01:58:51;4.60;;;4.20;;
7051;SDS011;3567;52.444;13.556;2023-05-10T02:01:18;4.90;;;4.40;;
7051;SDS011;3567;52.444;13.556;2023-05-10T02:03:46;5.25;;;4.72;;
7051;SDS011;3567;52.444;13.556;2023-05-10T02:06:14;6.60;;;4.95;;
7051;SDS011;3567;52.444;13.556;2023-05-10T02:08:43;7.10;;;4.60;;
7051;SDS011;3567;52.444;13.556;2023-05-10T02:11:11;5.07;;;4.57;;
7051;SDS011;3567;52.444;13.556;2023-05-10T02:13:38;8.52;;;4.00;;
7051;SDS011;3567;52.444;13.556;2023-05-10T02:16:05;4.78;;;4.25;;
7051;SDS011;3567;52.444;13.556;2023-05-10T02:18:32;7.95;;;4.60;;
7051;SDS011;3567;52.444;13.556;2023-05-10T02:20:59;7.55;;;4.35;;
7051;SDS011;3567;52.444;13.556;2023-05-10T02:23:26;4.65;;;4.13;;
7051;SDS011;3567;52.444;13.556;2023-05-10T02:25:53;8.63;;;4.65;;
7051;SDS011;3567;52.444;13.556;2023-05-10T02:28:20;4.28;;;3.97;;
7051;SDS011;3567;52.444;13.556;2023-05-10T02:30:48;5.80;;;4.50;;
7051;SDS011;3567;52.444;13.556;2023-05-10T02:33:14;6.13;;;4.10;;
7051;SDS011;3567;52.444;13.556;2023-05-10T02:35:39;7.90;;;4.55;;
7051;SDS011;3567;52.444;13.556;2023-05-10T02:38:06;6.97;;;4.00;;
7051;SDS011;3567;52.444;13.556;2023-05-10T02:40:32;6.95;;;4.85;;
7051;SDS011;3567;52.444;13.556;2023-05-10T02:42:59;6.20;;;3.88;;
7051;SDS011;3567;52.444;13.556;2023-05-10T02:45:27;6.03;;;4.13;;
7051;SDS011;3567;52.444;13.556;2023-05-10T02:47:55;5.72;;;4.57;;
7051;SDS011;3567;52.444;13.556;2023-05-10T02:50:21;7.00;;;4.40;;
7051;SDS011;3567;52.444;13.556;2023-05-10T02:52:49;4.45;;;4.05;;
7051;SDS011;3567;52.444;13.556;2023-05-10T02:55:19;4.70;;;4.22;;
7051;SDS011;3567;52.444;13.556;2023-05-10T02:57:55;8.68;;;4.78;;
7051;SDS011;3567;52.444;13.556;2023-05-10T03:00:24;5.97;;;3.88;;
7051;SDS011;3567;52.444;13.556;2023-05-10T03:02:49;7.70;;;4.28;;
7051;SDS011;3567;52.444;13.556;2023-05-10T03:05:15;4.40;;;3.88;;
7051;SDS011;3567;52.444;13.556;2023-05-10T03:07:40;5.97;;;3.95;;
7051;SDS011;3567;52.444;13.556;2023-05-10T03:10:06;5.15;;;3.60;;
7051;SDS011;3567;52.444;13.556;2023-05-10T03:15:30;4.82;;;3.83;;
7051;SDS011;3567;52.444;13.556;2023-05-10T03:18:47;4.28;;;3.78;;
7051;SDS011;3567;52.444;13.556;2023-05-10T03:20:59;6.35;;;3.92;;
7051;SDS011;3567;52.444;13.556;2023-05-10T03:23:33;5.63;;;4.28;;
7051;SDS011;3567;52.444;13.556;2023-05-10T03:26:03;4.47;;;3.70;;
7051;SDS011;3567;52.444;13.556;2023-05-10T03:28:30;7.03;;;4.28;;
7051;SDS011;3567;52.444;13.556;2023-05-10T03:30:58;4.22;;;3.53;;
7051;SDS011;3567;52.444;13.556;2023-05-10T03:33:24;4.80;;;3.95;;
7051;SDS011;3567;52.444;13.556;2023-05-10T03:35:50;5.68;;;4.18;;
7051;SDS011;3567;52.444;13.556;2023-05-10T03:38:15;6.10;;;3.63;;
7051;SDS011;3567;52.444;13.556;2023-05-10T03:40:41;4.40;;;3.97;;
7051;SDS011;3567;52.444;13.556;2023-05-10T03:43:06;7.93;;;4.35;;
7051;SDS011;3567;52.444;13.556;2023-05-10T03:45:31;4.28;;;3.75;;
7051;SDS011;3567;52.444;13.556;2023-05-10T03:47:57;7.72;;;4.18;;
7051;SDS011;3567;52.444;13.556;2023-05-10T03:50:23;9.65;;;5.10;;
7051;SDS011;3567;52.444;13.556;2023-05-10T03:52:49;4.82;;;4.07;;
7051;SDS011;3567;52.444;13.556;2023-05-10T03:55:15;4.63;;;4.13;;
7051;SDS011;3567;52.444;13.556;2023-05-10T03:57:41;8.18;;;4.00;;
7051;SDS011;3567;52.444;13.556;2023-05-10T04:00:06;5.28;;;4.03;;
7051;SDS011;3567;52.444;13.556;2023-05-10T04:02:33;7.07;;;3.83;;
7051;SDS011;3567;52.444;13.556;2023-05-10T04:04:58;5.97;;;4.63;;
7051;SDS011;3567;52.444;13.556;2023-05-10T04:07:23;4.13;;;3.70;;
7051;SDS011;3567;52.444;13.556;2023-05-10T04:09:49;6.10;;;4.18;;
7051;SDS011;3567;52.444;13.556;2023-05-10T04:12:14;4.35;;;3.88;;
7051;SDS011;3567;52.444;13.556;2023-05-10T04:14:39;4.38;;;3.97;;
7051;SDS011;3567;52.444;13.556;2023-05-10T04:17:05;6.22;;;3.85;;
7051;SDS011;3567;52.444;13.556;2023-05-10T04:19:31;5.53;;;3.42;;
7051;SDS011;3567;52.444;13.556;2023-05-10T04:21:57;5.72;;;3.78;;
7051;SDS011;3567;52.444;13.556;2023-05-10T04:24:23;4.15;;;3.75;;
7051;SDS011;3567;52.444;13.556;2023-05-10T04:26:48;4.53;;;3.47;;
7051;SDS011;3567;52.444;13.556;2023-05-10T04:29:14;5.32;;;3.50;;
7051;SDS011;3567;52.444;13.556;2023-05-10T04:31:39;3.13;;;2.90;;
7051;SDS011;3567;52.444;13.556;2023-05-10T04:34:04;5.88;;;3.58;;
7051;SDS011;3567;52.444;13.556;2023-05-10T04:36:30;5.05;;;3.63;;
7051;SDS011;3567;52.444;13.556;2023-05-10T04:38:57;3.88;;;3.53;;
7051;SDS011;3567;52.444;13.556;2023-05-10T04:41:23;3.50;;;3.20;;
7051;SDS011;3567;52.444;13.556;2023-05-10T04:43:48;6.88;;;3.35;;
7051;SDS011;3567;52.444;13.556;2023-05-10T04:46:14;6.43;;;3.53;;
7051;SDS011;3567;52.444;13.556;2023-05-10T04:48:39;3.10;;;2.60;;
7051;SDS011;3567;52.444;13.556;2023-05-10T04:51:05;4.47;;;3.97;;
7051;SDS011;3567;52.444;13.556;2023-05-10T04:53:31;5.65;;;3.72;;
7051;SDS011;3567;52.444;13.556;2023-05-10T04:55:57;8.13;;;3.35;;
7051;SDS011;3567;52.444;13.556;2023-05-10T04:58:22;6.60;;;2.83;;
7051;SDS011;3567;52.444;13.556;2023-05-10T05:00:47;3.42;;;3.13;;
7051;SDS011;3567;52.444;13.556;2023-05-10T05:03:13;4.75;;;3.15;;
7051;SDS011;3567;52.444;13.556;2023-05-10T05:05:38;6.65;;;2.80;;
7051;SDS011;3567;52.444;13.556;2023-05-10T05:08:03;6.45;;;3.13;;
7051;SDS011;3567;52.444;13.556;2023-05-10T05:10:29;3.53;;;3.17;;
7051;SDS011;3567;52.444;13.556;2023-05-10T05:12:54;5.63;;;2.95;;
7051;SDS011;3567;52.444;13.556;2023-05-10T05:15:20;3.67;;;3.10;;
7051;SDS011;3567;52.444;13.556;2023-05-10T05:17:45;2.80;;;2.50;;
7051;SDS011;3567;52.444;13.556;2023-05-10T05:20:11;6.00;;;2.83;;
7051;SDS011;3567;52.444;13.556;2023-05-10T05:22:37;5.22;;;3.30;;
7051;SDS011;3567;52.444;13.556;2023-05-10T05:25:03;3.33;;;2.40;;
7051;SDS011;3567;52.444;13.556;2023-05-10T05:27:29;3.13;;;2.03;;
7051;SDS011;3567;52.444;13.556;2023-05-10T05:29:56;5.45;;;2.35;;
7051;SDS011;3567;52.444;13.556;2023-05-10T05:32:22;3.38;;;2.42;;
7051;SDS011;3567;52.444;13.556;2023-05-10T05:34:48;8.02;;;3.00;;
7051;SDS011;3567;52.444;13.556;2023-05-10T05:37:17;4.35;;;2.67;;
7051;SDS011;3567;52.444;13.556;2023-05-10T05:39:43;6.60;;;2.75;;
7051;SDS011;3567;52.444;13.556;2023-05-10T05:42:09;2.78;;;2.58;;
7051;SDS011;3567;52.444;13.556;2023-05-10T05:44:35;5.95;;;2.38;;
7051;SDS011;3567;52.444;13.556;2023-05-10T05:47:00;2.70;;;2.50;;
7051;SDS011;3567;52.444;13.556;2023-05-10T05:49:25;3.55;;;2.20;;
7051;SDS011;3567;52.444;13.556;2023-05-10T05:51:51;6.10;;;2.40;;
7051;SDS011;3567;52.444;13.556;2023-05-10T05:54:16;5.13;;;3.53;;
7051;SDS011;3567;52.444;13.556;2023-05-10T05:56:41;6.68;;;2.63;;
7051;SDS011;3567;52.444;13.556;2023-05-10T05:59:07;2.10;;;1.65;;
7051;SDS011;3567;52.444;13.556;2023-05-10T06:01:33;4.47;;;2.20;;
7051;SDS011;3567;52.444;13.556;2023-05-10T06:03:58;3.72;;;2.40;;
7051;SDS011;3567;52.444;13.556;2023-05-10T06:06:23;6.03;;;2.63;;
7051;SDS011;3567;52.444;13.556;2023-05-10T06:08:49;2.28;;;2.08;;
7051;SDS011;3567;52.444;13.556;2023-05-10T06:11:14;4.65;;;2.17;;
7051;SDS011;3567;52.444;13.556;2023-05-10T06:13:39;6.43;;;1.90;;
7051;SDS011;3567;52.444;13.556;2023-05-10T06:16:05;5.95;;;1.83;;
7051;SDS011;3567;52.444;13.556;2023-05-10T06:18:30;3.75;;;2.50;;
7051;SDS011;3567;52.444;13.556;2023-05-10T06:20:56;2.65;;;1.70;;
7051;SDS011;3567;52.444;13.556;2023-05-10T06:23:22;2.47;;;1.92;;
7051;SDS011;3567;52.444;13.556;2023-05-10T06:25:47;3.63;;;1.75;;
7051;SDS011;3567;52.444;13.556;2023-05-10T06:28:13;3.75;;;1.90;;
7051;SDS011;3567;52.444;13.556;2023-05-10T06:30:38;2.67;;;1.80;;
7051;SDS011;3567;52.444;13.556;2023-05-10T06:33:04;4.60;;;1.80;;
7051;SDS011;3567;52.444;13.556;2023-05-10T06:35:29;2.20;;;2.00;;
7051;SDS011;3567;52.444;13.556;2023-05-10T06:37:56;3.38;;;2.17;;
7051;SDS011;3567;52.444;13.556;2023-05-10T06:40:21;3.42;;;2.20;;
7051;SDS011;3567;52.444;13.556;2023-05-10T06:42:47;3.22;;;1.63;;
7051;SDS011;3567;52.444;13.556;2023-05-10T06:45:13;7.60;;;2.42;;
7051;SDS011;3567;52.444;13.556;2023-05-10T06:47:39;4.85;;;1.67;;
7051;SDS011;3567;52.444;13.556;2023-05-10T06:50:06;2.45;;;2.25;;
7051;SDS011;3567;52.444;13.556;2023-05-10T06:52:32;3.85;;;1.85;;
7051;SDS011;3567;52.444;13.556;2023-05-10T06:54:57;2.80;;;1.95;;
7051;SDS011;3567;52.444;13.556;2023-05-10T06:57:23;2.47;;;1.80;;
7051;SDS011;3567;52.444;13.556;2023-05-10T06:59:49;4.00;;;1.70;;
7051;SDS011;3567;52.444;13.556;2023-05-10T07:02:14;5.85;;;1.90;;
7051;SDS011;3567;52.444;13.556;2023-05-10T07:04:40;5.60;;;2.03;;
7051;SDS011;3567;52.444;13.556;2023-05-10T07:07:05;1.60;;;1.50;;
7051;SDS011;3567;52.444;13.556;2023-05-10T07:09:30;5.57;;;1.90;;
7051;SDS011;3567;52.444;13.556;2023-05-10T07:11:56;3.58;;;1.65;;
7051;SDS011;3567;52.444;13.556;2023-05-10T07:14:22;2.53;;;2.10;;
7051;SDS011;3567;52.444;13.556;2023-05-10T07:16:48;2.58;;;1.88;;
7051;SDS011;3567;52.444;13.556;2023-05-10T07:19:13;2.20;;;1.55;;
7051;SDS011;3567;52.444;13.556;2023-05-10T07:21:39;5.07;;;1.75;;
7051;SDS011;3567;52.444;13.556;2023-05-10T07:24:05;3.70;;;1.98;;
7051;SDS011;3567;52.444;13.556;2023-05-10T07:26:30;3.88;;;1.90;;
7051;SDS011;3567;52.444;13.556;2023-05-10T07:28:56;6.93;;;1.90;;
7051;SDS011;3567;52.444;13.556;2023-05-10T07:31:21;1.90;;;1.58;;
7051;SDS011;3567;52.444;13.556;2023-05-10T07:33:47;1.95;;;1.63;;
7051;SDS011;3567;52.444;13.556;2023-05-10T07:36:12;3.72;;;1.80;;
7051;SDS011;3567;52.444;13.556;2023-05-10T07:38:38;6.15;;;1.88;;
7051;SDS011;3567;52.444;13.556;2023-05-10T07:41:03;4.55;;;1.75;;
7051;SDS011;3567;52.444;13.556;2023-05-10T07:43:28;2.72;;;1.90;;
7051;SDS011;3567;52.444;13.556;2023-05-10T07:45:54;3.30;;;1.52;;
7051;SDS011;3567;52.444;13.556;2023-05-10T07:48:19;1.67;;;1.58;;
7051;SDS011;3567;52.444;13.556;2023-05-10T07:50:45;2.60;;;1.60;;
7051;SDS011;3567;52.444;13.556;2023-05-10T07:53:10;5.18;;;1.70;;
7051;SDS011;3567;52.444;13.556;2023-05-10T07:55:36;3.30;;;1.63;;
7051;SDS011;3567;52.444;13.556;2023-05-10T07:58:01;4.43;;;2.13;;
7051;SDS011;3567;52.444;13.556;2023-05-10T08:00:26;4.88;;;1.77;;
7051;SDS011;3567;52.444;13.556;2023-05-10T08:02:52;6.57;;;2.03;;
7051;SDS011;3567;52.444;13.556;2023-05-10T08:05:17;2.72;;;1.98;;
7051;SDS011;3567;52.444;13.556;2023-05-10T08:07:43;3.83;;;2.25;;
7051;SDS011;3567;52.444;13.556;2023-05-10T08:10:09;2.50;;;2.00;;
7051;SDS011;3567;52.444;13.556;2023-05-10T08:12:36;4.28;;;1.83;;
7051;SDS011;3567;52.444;13.556;2023-05-10T08:15:02;3.30;;;1.77;;
7051;SDS011;3567;52.444;13.556;2023-05-10T08:17:28;2.47;;;1.90;;
7051;SDS011;3567;52.444;13.556;2023-05-10T08:19:53;3.33;;;1.48;;
7051;SDS011;3567;52.444;13.556;2023-05-10T08:22:18;1.77;;;1.30;;
7051;SDS011;3567;52.444;13.556;2023-05-10T08:24:44;3.90;;;1.80;;
7051;SDS011;3567;52.444;13.556;2023-05-10T08:27:09;2.85;;;1.67;;
7051;SDS011;3567;52.444;13.556;2023-05-10T08:29:34;6.35;;;1.75;;
7051;SDS011;3567;52.444;13.556;2023-05-10T08:32:00;3.13;;;1.30;;
7051;SDS011;3567;52.444;13.556;2023-05-10T08:34:26;2.85;;;1.83;;
7051;SDS011;3567;52.444;13.556;2023-05-10T08:36:52;4.90;;;1.88;;
7051;SDS011;3567;52.444;13.556;2023-05-10T08:39:17;4.63;;;2.00;;
7051;SDS011;3567;52.444;13.556;2023-05-10T08:41:43;2.10;;;2.00;;
7051;SDS011;3567;52.444;13.556;2023-05-10T08:44:10;3.42;;;1.70;;
7051;SDS011;3567;52.444;13.556;2023-05-10T08:46:36;4.03;;;1.83;;
7051;SDS011;3567;52.444;13.556;2023-05-10T08:49:04;2.75;;;1.48;;
7051;SDS011;3567;52.444;13.556;2023-05-10T08:51:35;2.85;;;2.00;;
7051;SDS011;3567;52.444;13.556;2023-05-10T08:54:03;3.53;;;1.58;;
7051;SDS011;3567;52.444;13.556;2023-05-10T08:56:29;2.88;;;1.92;;
7051;SDS011;3567;52.444;13.556;2023-05-10T08:58:54;2.03;;;1.80;;
7051;SDS011;3567;52.444;13.556;2023-05-10T09:01:21;7.05;;;1.52;;
7051;SDS011;3567;52.444;13.556;2023-05-10T09:03:47;1.70;;;1.60;;
7051;SDS011;3567;52.444;13.556;2023-05-10T09:06:13;1.75;;;1.50;;
7051;SDS011;3567;52.444;13.556;2023-05-10T09:08:38;6.45;;;1.67;;
7051;SDS011;3567;52.444;13.556;2023-05-10T09:11:06;2.60;;;1.80;;
7051;SDS011;3567;52.444;13.556;2023-05-10T09:13:32;2.10;;;1.73;;
7051;SDS011;3567;52.444;13.556;2023-05-10T09:15:58;4.13;;;1.90;;
7051;SDS011;3567;52.444;13.556;2023-05-10T09:18:24;2.10;;;2.00;;
7051;SDS011;3567;52.444;13.556;2023-05-10T09:20:50;2.47;;;1.90;;
7051;SDS011;3567;52.444;13.556;2023-05-10T09:23:15;2.25;;;1.63;;
7051;SDS011;3567;52.444;13.556;2023-05-10T09:25:41;3.05;;;1.85;;
7051;SDS011;3567;52.444;13.556;2023-05-10T09:28:07;1.80;;;1.70;;
7051;SDS011;3567;52.444;13.556;2023-05-10T09:30:34;1.70;;;1.60;;
7051;SDS011;3567;52.444;13.556;2023-05-10T09:33:00;1.95;;;1.77;;
7051;SDS011;3567;52.444;13.556;2023-05-10T09:35:27;1.75;;;1.65;;
7051;SDS011;3567;52.444;13.556;2023-05-10T09:37:54;3.90;;;1.98;;
7051;SDS011;3567;52.444;13.556;2023-05-10T09:40:21;2.67;;;1.75;;
7051;SDS011;3567;52.444;13.556;2023-05-10T09:42:52;7.00;;;2.28;;
7051;SDS011;3567;52.444;13.556;2023-05-10T09:45:17;1.88;;;1.77;;
7051;SDS011;3567;52.444;13.556;2023-05-10T09:47:42;3.03;;;1.80;;
7051;SDS011;3567;52.444;13.556;2023-05-10T09:50:09;2.10;;;1.85;;
7051;SDS011;3567;52.444;13.556;2023-05-10T09:55:19;4.28;;;1.80;;
7051;SDS011;3567;52.444;13.556;2023-05-10T09:57:47;6.97;;;1.55;;
7051;SDS011;3567;52.444;13.556;2023-05-10T10:00:18;4.15;;;1.60;;
7051;SDS011;3567;52.444;13.556;2023-05-10T10:02:48;8.65;;;2.08;;
7051;SDS011;3567;52.444;13.556;2023-05-10T10:05:19;10.60;;;2.40;;
7051;SDS011;3567;52.444;13.556;2023-05-10T10:07:45;6.30;;;1.70;;
7051;SDS011;3567;52.444;13.556;2023-05-10T10:10:10;4.20;;;1.60;;
7051;SDS011;3567;52.444;13.556;2023-05-10T10:12:37;2.25;;;1.85;;
7051;SDS011;3567;52.444;13.556;2023-05-10T10:15:04;1.83;;;1.27;;
7051;SDS011;3567;52.444;13.556;2023-05-10T10:17:31;6.82;;;1.83;;
7051;SDS011;3567;52.444;13.556;2023-05-10T10:19:57;3.22;;;1.50;;
7051;SDS011;3567;52.444;13.556;2023-05-10T10:22:23;3.35;;;1.60;;
7051;SDS011;3567;52.444;13.556;2023-05-10T10:24:49;1.83;;;1.73;;
7051;SDS011;3567;52.444;13.556;2023-05-10T10:27:19;1.48;;;1.38;;
7051;SDS011;3567;52.444;13.556;2023-05-10T10:29:52;1.40;;;1.30;;
7051;SDS011;3567;52.444;13.556;2023-05-10T10:35:19;3.17;;;1.70;;
7051;SDS011;3567;52.444;13.556;2023-05-10T10:37:45;1.77;;;1.67;;
7051;SDS011;3567;52.444;13.556;2023-05-10T10:40:24;4.32;;;1.70;;
7051;SDS011;3567;52.444;13.556;2023-05-10T10:42:56;4.60;;;1.38;;
7051;SDS011;3567;52.444;13.556;2023-05-10T10:45:23;2.67;;;1.80;;
7051;SDS011;3567;52.444;13.556;2023-05-10T10:48:14;2.08;;;1.52;;
7051;SDS011;3567;52.444;13.556;2023-05-10T10:50:45;3.90;;;1.45;;
7051;SDS011;3567;52.444;13.556;2023-05-10T10:53:13;1.60;;;1.50;;
7051;SDS011;3567;52.444;13.556;2023-05-10T10:55:48;1.48;;;1.40;;
7051;SDS011;3567;52.444;13.556;2023-05-10T10:58:32;2.17;;;1.73;;
7051;SDS011;3567;52.444;13.556;2023-05-10T11:01:14;2.38;;;1.73;;
7051;SDS011;3567;52.444;13.556;2023-05-10T11:06:32;1.50;;;1.50;;
7051;SDS011;3567;52.444;13.556;2023-05-10T11:08:59;2.83;;;1.60;;
7051;SDS011;3567;52.444;13.556;2023-05-10T11:11:34;1.33;;;1.27;;
7051;SDS011;3567;52.444;13.556;2023-05-10T11:14:04;1.40;;;1.30;;
7051;SDS011;3567;52.444;13.556;2023-05-10T11:16:44;1.38;;;1.05;;
7051;SDS011;3567;52.444;13.556;2023-05-10T11:19:10;3.15;;;1.63;;
7051;SDS011;3567;52.444;13.556;2023-05-10T11:24:15;2.92;;;1.30;;
7051;SDS011;3567;52.444;13.556;2023-05-10T11:26:45;3.03;;;1.40;;
7051;SDS011;3567;52.444;13.556;2023-05-10T11:29:15;2.80;;;1.50;;
7051;SDS011;3567;52.444;13.556;2023-05-10T11:31:44;2.20;;;1.60;;
7051;SDS011;3567;52.444;13.556;2023-05-10T11:34:11;4.18;;;1.77;;
7051;SDS011;3567;52.444;13.556;2023-05-10T11:36:50;6.45;;;1.80;;
7051;SDS011;3567;52.444;13.556;2023-05-10T11:39:18;3.33;;;2.10;;
7051;SDS011;3567;52.444;13.556;2023-05-10T11:41:44;3.47;;;1.40;;
7051;SDS011;3567;52.444;13.556;2023-05-10T11:44:13;5.45;;;1.25;;
7051;SDS011;3567;52.444;13.556;2023-05-10T11:46:38;2.78;;;1.15;;
7051;SDS011;3567;52.444;13.556;2023-05-10T11:49:04;4.38;;;1.75;;
7051;SDS011;3567;52.444;13.556;2023-05-10T11:51:34;3.33;;;1.60;;
7051;SDS011;3567;52.444;13.556;2023-05-10T11:54:01;3.50;;;1.00;;
7051;SDS011;3567;52.444;13.556;2023-05-10T11:56:32;4.03;;;1.45;;
7051;SDS011;3567;52.444;13.556;2023-05-10T11:58:58;8.63;;;2.50;;
7051;SDS011;3567;52.444;13.556;2023-05-10T12:01:25;8.50;;;6.22;;
7051;SDS011;3567;52.444;13.556;2023-05-10T12:03:52;9.50;;;1.70;;
7051;SDS011;3567;52.444;13.556;2023-05-10T12:06:19;9.27;;;1.75;;
7051;SDS011;3567;52.444;13.556;2023-05-10T12:08:46;2.53;;;1.17;;
7051;SDS011;3567;52.444;13.556;2023-05-10T12:11:13;4.45;;;2.13;;
7051;SDS011;3567;52.444;13.556;2023-05-10T12:13:40;3.28;;;2.08;;
7051;SDS011;3567;52.444;13.556;2023-05-10T12:16:13;3.10;;;1.55;;
7051;SDS011;3567;52.444;13.556;2023-05-10T12:18:43;5.15;;;1.55;;
7051;SDS011;3567;52.444;13.556;2023-05-10T12:21:11;3.97;;;1.35;;
7051;SDS011;3567;52.444;13.556;2023-05-10T12:23:37;4.93;;;1.23;;
7051;SDS011;3567;52.444;13.556;2023-05-10T12:26:03;2.38;;;1.10;;
7051;SDS011;3567;52.444;13.556;2023-05-10T12:28:29;2.25;;;1.60;;
7051;SDS011;3567;52.444;13.556;2023-05-10T12:30:57;4.53;;;1.17;;
7051;SDS011;3567;52.444;13.556;2023-05-10T12:33:23;3.92;;;1.38;;
7051;SDS011;3567;52.444;13.556;2023-05-10T12:35:50;5.68;;;1.50;;
7051;SDS011;3567;52.444;13.556;2023-05-10T12:41:15;3.88;;;1.17;;
7051;SDS011;3567;52.444;13.556;2023-05-10T12:43:42;2.33;;;1.00;;
7051;SDS011;3567;52.444;13.556;2023-05-10T12:46:12;6.07;;;1.20;;
7051;SDS011;3567;52.444;13.556;2023-05-10T12:48:39;7.90;;;1.65;;
7051;SDS011;3567;52.444;13.556;2023-05-10T12:51:06;3.72;;;1.42;;
7051;SDS011;3567;52.444;13.556;2023-05-10T12:53:34;0.90;;;0.90;;
7051;SDS011;3567;52.444;13.556;2023-05-10T12:56:00;1.40;;;1.30;;
7051;SDS011;3567;52.444;13.556;2023-05-10T12:58:26;1.95;;;1.50;;
7051;SDS011;3567;52.444;13.556;2023-05-10T13:00:51;2.88;;;1.23;;
7051;SDS011;3567;52.444;13.556;2023-05-10T13:03:17;2.78;;;1.00;;
7051;SDS011;3567;52.444;13.556;2023-05-10T13:05:43;6.88;;;1.80;;
7051;SDS011;3567;52.444;13.556;2023-05-10T13:08:08;3.83;;;1.40;;
7051;SDS011;3567;52.444;13.556;2023-05-10T13:10:33;0.90;;;0.90;;
7051;SDS011;3567;52.444;13.556;2023-05-10T13:12:59;1.25;;;1.00;;
7051;SDS011;3567;52.444;13.556;2023-05-10T13:15:24;6.68;;;1.10;;
7051;SDS011;3567;52.444;13.556;2023-05-10T13:17:50;2.83;;;1.13;;
7051;SDS011;3567;52.444;13.556;2023-05-10T13:20:16;1.98;;;0.95;;
7051;SDS011;3567;52.444;13.556;2023-05-10T13:22:42;2.47;;;1.30;;
7051;SDS011;3567;52.444;13.556;2023-05-10T13:25:09;2.47;;;1.40;;
7051;SDS011;3567;52.444;13.556;2023-05-10T13:27:35;4.03;;;1.48;;
7051;SDS011;3567;52.444;13.556;2023-05-10T13:30:00;5.95;;;1.27;;
7051;SDS011;3567;52.444;13.556;2023-05-10T13:32:28;2.10;;;1.10;;
7051;SDS011;3567;52.444;13.556;2023-05-10T13:34:53;4.00;;;1.25;;
7051;SDS011;3567;52.444;13.556;2023-05-10T13:37:18;4.20;;;1.40;;
7051;SDS011;3567;52.444;13.556;2023-05-10T13:39:44;6.25;;;1.35;;
7051;SDS011;3567;52.444;13.556;2023-05-10T13:42:09;1.27;;;1.00;;
7051;SDS011;3567;52.444;13.556;2023-05-10T13:44:35;1.67;;;1.30;;
7051;SDS011;3567;52.444;13.556;2023-05-10T13:47:01;4.88;;;1.00;;
7051;SDS011;3567;52.444;13.556;2023-05-10T13:49:26;1.90;;;1.27;;
7051;SDS011;3567;52.444;13.556;2023-05-10T13:51:52;6.15;;;1.30;;
7051;SDS011;3567;52.444;13.556;2023-05-10T13:54:17;3.20;;;1.00;;
7051;SDS011;3567;52.444;13.556;2023-05-10T13:56:44;1.95;;;0.85;;
7051;SDS011;3567;52.444;13.556;2023-05-10T13:59:12;5.28;;;1.73;;
7051;SDS011;3567;52.444;13.556;2023-05-10T14:01:37;3.80;;;0.95;;
7051;SDS011;3567;52.444;13.556;2023-05-10T14:04:03;3.15;;;1.20;;
7051;SDS011;3567;52.444;13.556;2023-05-10T14:06:28;4.70;;;1.05;;
7051;SDS011;3567;52.444;13.556;2023-05-10T14:08:53;1.10;;;1.10;;
7051;SDS011;3567;52.444;13.556;2023-05-10T14:11:19;3.83;;;1.30;;
7051;SDS011;3567;52.444;13.556;2023-05-10T14:13:45;5.30;;;1.52;;
7051;SDS011;3567;52.444;13.556;2023-05-10T14:16:10;2.08;;;1.23;;
7051;SDS011;3567;52.444;13.556;2023-05-10T14:18:36;3.45;;;1.30;;
7051;SDS011;3567;52.444;13.556;2023-05-10T14:21:02;1.65;;;1.13;;
7051;SDS011;3567;52.444;13.556;2023-05-10T14:23:28;2.67;;;1.20;;
7051;SDS011;3567;52.444;13.556;2023-05-10T14:25:54;0.90;;;0.90;;
7051;SDS011;3567;52.444;13.556;2023-05-10T14:28:19;1.40;;;0.93;;
7051;SDS011;3567;52.444;13.556;2023-05-10T14:30:45;1.40;;;0.80;;
7051;SDS011;3567;52.444;13.556;2023-05-10T14:33:11;1.90;;;1.65;;
7051;SDS011;3567;52.444;13.556;2023-05-10T14:35:37;2.05;;;1.13;;
7051;SDS011;3567;52.444;13.556;2023-05-10T14:38:02;1.30;;;1.15;;
7051;SDS011;3567;52.444;13.556;2023-05-10T14:40:30;1.73;;;1.05;;
7051;SDS011;3567;52.444;13.556;2023-05-10T14:42:56;0.95;;;0.82;;
7051;SDS011;3567;52.444;13.556;2023-05-10T14:45:22;4.78;;;1.38;;
7051;SDS011;3567;52.444;13.556;2023-05-10T14:47:48;5.20;;;0.98;;
7051;SDS011;3567;52.444;13.556;2023-05-10T14:50:14;2.42;;;1.25;;
7051;SDS011;3567;52.444;13.556;2023-05-10T14:52:39;3.40;;;1.13;;
7051;SDS011;3567;52.444;13.556;2023-05-10T14:55:05;2.35;;;1.73;;
7051;SDS011;3567;52.444;13.556;2023-05-10T14:57:30;2.05;;;0.82;;
7051;SDS011;3567;52.444;13.556;2023-05-10T14:59:57;2.55;;;1.23;;
7051;SDS011;3567;52.444;13.556;2023-05-10T15:02:22;2.45;;;0.98;;
7051;SDS011;3567;52.444;13.556;2023-05-10T15:04:48;2.53;;;1.00;;
7051;SDS011;3567;52.444;13.556;2023-05-10T15:07:13;3.28;;;1.50;;
7051;SDS011;3567;52.444;13.556;2023-05-10T15:09:40;1.27;;;1.17;;
7051;SDS011;3567;52.444;13.556;2023-05-10T15:12:05;1.42;;;1.02;;
7051;SDS011;3567;52.444;13.556;2023-05-10T15:14:31;4.95;;;1.20;;
7051;SDS011;3567;52.444;13.556;2023-05-10T15:16:57;2.83;;;1.50;;
7051;SDS011;3567;52.444;13.556;2023-05-10T15:19:23;5.43;;;1.75;;
7051;SDS011;3567;52.444;13.556;2023-05-10T15:21:48;1.85;;;1.08;;
7051;SDS011;3567;52.444;13.556;2023-05-10T15:24:14;6.32;;;1.60;;
7051;SDS011;3567;52.444;13.556;2023-05-10T15:26:39;3.33;;;1.33;;
7051;SDS011;3567;52.444;13.556;2023-05-10T15:29:05;2.20;;;1.00;;